sensor_id;sensor_type;location;lat;lon;timestamp;pressure;altitude;pressure_sealevel;temperature;humidity
10348;BME280;5220;43.192;23.284;2022-11-21T09:26:06;95972.25;;;10.25;97.75
10348;BME280;5220;43.192;23.284;2022-11-21T09:28:33;95981.31;;;10.50;94.40
10348;BME280;5220;43.192;23.284;2022-11-21T09:31:01;95970.00;;;10.70;95.65
10348;BME280;5220;43.192;23.284;2022-11-21T09:33:28;95962.44;;;10.87;94.22
10348;BME280;5220;43.192;23.284;2022-11-21T09:35:57;95978.03;;;11.06;93.50
10348;BME280;5220;43.192;23.284;2022-11-21T09:38:35;95971.16;;;11.24;91.55
10348;BME280;5220;43.192;23.284;2022-11-21T09:41:12;95956.19;;;11.45;90.13
10348;BME280;5220;43.192;23.284;2022-11-21T09:44:00;95961.34;;;11.64;88.59
10348;BME280;5220;43.192;23.284;2022-11-21T09:47:05;95952.88;;;11.90;88.53
10348;BME280;5220;43.192;23.284;2022-11-21T09:53:01;95960.19;;;12.13;84.81
10348;BME280;5220;43.192;23.284;2022-11-21T09:55:36;95971.00;;;12.18;82.23
10348;BME280;5220;43.192;23.284;2022-11-21T09:58:15;95964.94;;;12.18;81.51
10348;BME280;5220;43.192;23.284;2022-11-21T10:00:44;95977.88;;;12.37;79.30
10348;BME280;5220;43.192;23.284;2022-11-21T10:03:12;95987.72;;;12.43;78.02
10348;BME280;5220;43.192;23.284;2022-11-21T10:05:43;95986.00;;;12.34;73.90
10348;BME280;5220;43.192;23.284;2022-11-21T10:08:16;95971.88;;;12.27;72.87
10348;BME280;5220;43.192;23.284;2022-11-21T10:10:53;95974.47;;;12.09;73.27
10348;BME280;5220;43.192;23.284;2022-11-21T10:13:35;95999.38;;;12.21;71.08
10348;BME280;5220;43.192;23.284;2022-11-21T10:16:08;95988.75;;;12.05;72.14
10348;BME280;5220;43.192;23.284;2022-11-21T10:21:55;95992.38;;;12.22;71.77
10348;BME280;5220;43.192;23.284;2022-11-21T10:24:37;95990.97;;;12.27;72.48
10348;BME280;5220;43.192;23.284;2022-11-21T10:27:11;95998.75;;;12.37;71.04
10348;BME280;5220;43.192;23.284;2022-11-21T10:30:02;95992.94;;;12.43;70.65
10348;BME280;5220;43.192;23.284;2022-11-21T10:32:51;96002.41;;;12.44;66.90
10348;BME280;5220;43.192;23.284;2022-11-21T10:35:21;95995.13;;;12.48;68.39
10348;BME280;5220;43.192;23.284;2022-11-21T10:37:51;95988.91;;;12.49;67.90
10348;BME280;5220;43.192;23.284;2022-11-21T10:40:43;96011.00;;;12.54;66.66
10348;BME280;5220;43.192;23.284;2022-11-21T10:43:24;96016.00;;;12.48;66.03
10348;BME280;5220;43.192;23.284;2022-11-21T10:46:12;96002.75;;;12.31;66.26
10348;BME280;5220;43.192;23.284;2022-11-21T10:48:55;96003.53;;;12.42;66.78
10348;BME280;5220;43.192;23.284;2022-11-21T10:51:35;96003.44;;;12.33;65.72
10348;BME280;5220;43.192;23.284;2022-11-21T10:54:04;96004.59;;;12.21;65.26
10348;BME280;5220;43.192;23.284;2022-11-21T10:56:51;96012.06;;;12.34;65.69
10348;BME280;5220;43.192;23.284;2022-11-21T10:59:34;96013.63;;;12.27;66.29
10348;BME280;5220;43.192;23.284;2022-11-21T11:02:21;96003.72;;;12.30;65.77
10348;BME280;5220;43.192;23.284;2022-11-21T11:04:48;96010.22;;;12.26;64.85
10348;BME280;5220;43.192;23.284;2022-11-21T11:07:35;95996.16;;;12.10;64.33
10348;BME280;5220;43.192;23.284;2022-11-21T11:13:24;95997.78;;;12.38;64.58
10348;BME280;5220;43.192;23.284;2022-11-21T11:16:03;95997.84;;;12.28;63.15
10348;BME280;5220;43.192;23.284;2022-11-21T11:21:53;96003.19;;;12.27;63.93
10348;BME280;5220;43.192;23.284;2022-11-21T11:24:24;96005.22;;;12.33;63.11
10348;BME280;5220;43.192;23.284;2022-11-21T11:26:57;96002.84;;;12.39;63.61
10348;BME280;5220;43.192;23.284;2022-11-21T11:32:46;95991.97;;;12.44;63.52
10348;BME280;5220;43.192;23.284;2022-11-21T11:35:20;95998.63;;;12.56;63.67
10348;BME280;5220;43.192;23.284;2022-11-21T11:37:57;96003.25;;;12.62;64.22
10348;BME280;5220;43.192;23.284;2022-11-21T11:40:29;95999.16;;;12.60;64.52
10348;BME280;5220;43.192;23.284;2022-11-21T11:43:07;96004.22;;;12.61;65.53
10348;BME280;5220;43.192;23.284;2022-11-21T11:46:13;95991.28;;;12.69;62.88
10348;BME280;5220;43.192;23.284;2022-11-21T11:49:03;95997.63;;;12.67;63.56
10348;BME280;5220;43.192;23.284;2022-11-21T11:51:37;96001.41;;;12.72;63.50
10348;BME280;5220;43.192;23.284;2022-11-21T11:54:11;95993.94;;;12.77;61.73
10348;BME280;5220;43.192;23.284;2022-11-21T11:56:41;95996.56;;;12.77;62.04
10348;BME280;5220;43.192;23.284;2022-11-21T11:59:14;95984.41;;;12.68;62.45
10348;BME280;5220;43.192;23.284;2022-11-21T12:01:48;95984.56;;;12.67;61.27
10348;BME280;5220;43.192;23.284;2022-11-21T12:04:17;95992.22;;;12.68;60.48
10348;BME280;5220;43.192;23.284;2022-11-21T12:06:49;95991.94;;;12.71;61.29
10348;BME280;5220;43.192;23.284;2022-11-21T12:09:36;95996.09;;;12.64;60.03
10348;BME280;5220;43.192;23.284;2022-11-21T12:12:09;95995.13;;;12.65;60.36
10348;BME280;5220;43.192;23.284;2022-11-21T12:14:49;96006.63;;;12.72;60.28
10348;BME280;5220;43.192;23.284;2022-11-21T12:17:41;95998.19;;;12.78;62.03
10348;BME280;5220;43.192;23.284;2022-11-21T12:23:50;96009.88;;;12.57;61.87
10348;BME280;5220;43.192;23.284;2022-11-21T12:26:27;96016.53;;;12.51;61.82
10348;BME280;5220;43.192;23.284;2022-11-21T12:31:56;96017.56;;;12.58;63.84
10348;BME280;5220;43.192;23.284;2022-11-21T12:34:50;96017.78;;;12.47;63.99
10348;BME280;5220;43.192;23.284;2022-11-21T12:37:31;96027.47;;;12.55;64.16
10348;BME280;5220;43.192;23.284;2022-11-21T12:43:32;96012.97;;;12.43;61.60
10348;BME280;5220;43.192;23.284;2022-11-21T12:46:09;96005.59;;;12.38;60.62
10348;BME280;5220;43.192;23.284;2022-11-21T12:48:50;96015.53;;;12.52;62.98
10348;BME280;5220;43.192;23.284;2022-11-21T12:51:52;96012.84;;;12.44;62.31
10348;BME280;5220;43.192;23.284;2022-11-21T12:55:03;96017.59;;;12.31;60.10
10348;BME280;5220;43.192;23.284;2022-11-21T12:57:45;96011.00;;;12.27;59.69
10348;BME280;5220;43.192;23.284;2022-11-21T13:00:23;96019.84;;;12.16;58.84
10348;BME280;5220;43.192;23.284;2022-11-21T13:03:19;96025.25;;;12.05;59.75
10348;BME280;5220;43.192;23.284;2022-11-21T13:05:50;96031.03;;;11.99;61.02
10348;BME280;5220;43.192;23.284;2022-11-21T13:08:21;96027.16;;;12.13;61.96
10348;BME280;5220;43.192;23.284;2022-11-21T13:10:54;96031.78;;;12.19;62.81
10348;BME280;5220;43.192;23.284;2022-11-21T13:13:43;96032.91;;;12.16;60.80
10348;BME280;5220;43.192;23.284;2022-11-21T13:16:18;96033.88;;;12.06;60.44
10348;BME280;5220;43.192;23.284;2022-11-21T13:22:51;96036.34;;;11.70;58.65
10348;BME280;5220;43.192;23.284;2022-11-21T13:25:35;96047.53;;;11.80;61.00
10348;BME280;5220;43.192;23.284;2022-11-21T13:28:28;96041.25;;;11.83;61.52
10348;BME280;5220;43.192;23.284;2022-11-21T13:34:37;96046.72;;;11.80;60.06
10348;BME280;5220;43.192;23.284;2022-11-21T13:37:05;96050.97;;;11.91;62.57
10348;BME280;5220;43.192;23.284;2022-11-21T13:39:36;96050.69;;;11.84;62.00
10348;BME280;5220;43.192;23.284;2022-11-21T13:45:39;96072.94;;;11.78;61.54
10348;BME280;5220;43.192;23.284;2022-11-21T13:48:44;96069.09;;;11.82;62.12
10348;BME280;5220;43.192;23.284;2022-11-21T13:51:45;96067.06;;;11.76;62.38
10348;BME280;5220;43.192;23.284;2022-11-21T13:54:48;96072.94;;;11.78;62.13
10348;BME280;5220;43.192;23.284;2022-11-21T14:01:04;96081.56;;;11.69;63.81
10348;BME280;5220;43.192;23.284;2022-11-21T14:07:28;96087.06;;;11.66;65.49
10348;BME280;5220;43.192;23.284;2022-11-21T14:13:25;96098.31;;;11.86;66.02
10348;BME280;5220;43.192;23.284;2022-11-21T14:16:07;96105.56;;;11.92;66.04
10348;BME280;5220;43.192;23.284;2022-11-21T14:18:45;96101.16;;;11.93;65.49
10348;BME280;5220;43.192;23.284;2022-11-21T14:21:46;96105.56;;;11.92;64.93
10348;BME280;5220;43.192;23.284;2022-11-21T14:24:18;96101.16;;;11.93;63.80
10348;BME280;5220;43.192;23.284;2022-11-21T14:26:46;96103.75;;;11.93;63.48
10348;BME280;5220;43.192;23.284;2022-11-21T14:29:25;96107.91;;;11.85;62.50
10348;BME280;5220;43.192;23.284;2022-11-21T14:31:53;96103.38;;;11.88;62.21
10348;BME280;5220;43.192;23.284;2022-11-21T14:34:24;96114.34;;;11.91;62.79
10348;BME280;5220;43.192;23.284;2022-11-21T14:36:51;96113.38;;;11.92;63.63
10348;BME280;5220;43.192;23.284;2022-11-21T14:39:28;96117.75;;;11.92;63.65
10348;BME280;5220;43.192;23.284;2022-11-21T14:42:32;96130.91;;;11.90;63.99
10348;BME280;5220;43.192;23.284;2022-11-21T14:45:16;96124.59;;;11.93;63.84
10348;BME280;5220;43.192;23.284;2022-11-21T14:47:47;96118.44;;;11.84;63.83
10348;BME280;5220;43.192;23.284;2022-11-21T14:50:29;96113.25;;;11.74;64.67
10348;BME280;5220;43.192;23.284;2022-11-21T14:52:58;96115.16;;;11.63;63.92
10348;BME280;5220;43.192;23.284;2022-11-21T14:55:28;96125.31;;;11.66;65.54
10348;BME280;5220;43.192;23.284;2022-11-21T14:57:57;96136.69;;;11.74;66.80
10348;BME280;5220;43.192;23.284;2022-11-21T15:00:28;96131.22;;;11.77;66.89
10348;BME280;5220;43.192;23.284;2022-11-21T15:02:57;96146.84;;;11.77;67.91
10348;BME280;5220;43.192;23.284;2022-11-21T15:15:18;96150.94;;;11.80;69.04
10348;BME280;5220;43.192;23.284;2022-11-21T15:17:49;96147.28;;;11.82;69.50
10348;BME280;5220;43.192;23.284;2022-11-21T15:23:41;96147.66;;;11.88;68.98
10348;BME280;5220;43.192;23.284;2022-11-21T15:26:27;96138.63;;;11.82;68.11
10348;BME280;5220;43.192;23.284;2022-11-21T15:29:00;96135.75;;;11.85;67.42
10348;BME280;5220;43.192;23.284;2022-11-21T15:31:28;96135.59;;;11.86;68.04
10348;BME280;5220;43.192;23.284;2022-11-21T15:33:57;96131.19;;;11.87;68.67
10348;BME280;5220;43.192;23.284;2022-11-21T15:36:25;96124.66;;;11.83;70.06
10348;BME280;5220;43.192;23.284;2022-11-21T15:38:55;96124.91;;;11.80;69.61
10348;BME280;5220;43.192;23.284;2022-11-21T15:41:28;96113.97;;;11.76;70.85
10348;BME280;5220;43.192;23.284;2022-11-21T15:44:20;96115.56;;;11.77;70.38
10348;BME280;5220;43.192;23.284;2022-11-21T15:47:07;96112.59;;;11.72;71.32
10348;BME280;5220;43.192;23.284;2022-11-21T15:52:56;96126.41;;;11.63;69.22
10348;BME280;5220;43.192;23.284;2022-11-21T15:55:25;96126.97;;;11.57;69.80
10348;BME280;5220;43.192;23.284;2022-11-21T15:57:53;96127.78;;;11.48;70.28
10348;BME280;5220;43.192;23.284;2022-11-21T16:00:20;96136.16;;;11.42;69.89
10348;BME280;5220;43.192;23.284;2022-11-21T16:02:48;96146.97;;;11.38;70.25
10348;BME280;5220;43.192;23.284;2022-11-21T16:05:15;96140.81;;;11.39;70.80
10348;BME280;5220;43.192;23.284;2022-11-21T16:07:42;96153.00;;;11.38;71.81
10348;BME280;5220;43.192;23.284;2022-11-21T16:16:47;96184.63;;;11.24;73.06
10348;BME280;5220;43.192;23.284;2022-11-21T16:19:15;96181.50;;;11.20;72.93
10348;BME280;5220;43.192;23.284;2022-11-21T16:21:42;96186.97;;;11.17;72.81
10348;BME280;5220;43.192;23.284;2022-11-21T16:24:08;96180.13;;;11.16;72.66
10348;BME280;5220;43.192;23.284;2022-11-21T16:26:35;96183.53;;;11.17;72.65
10348;BME280;5220;43.192;23.284;2022-11-21T16:32:10;96170.06;;;11.02;72.26
10348;BME280;5220;43.192;23.284;2022-11-21T16:34:38;96178.03;;;11.01;72.26
10348;BME280;5220;43.192;23.284;2022-11-21T16:37:05;96191.31;;;10.98;73.83
10348;BME280;5220;43.192;23.284;2022-11-21T16:43:08;96195.81;;;10.96;74.60
10348;BME280;5220;43.192;23.284;2022-11-21T16:48:58;96207.84;;;10.97;74.10
10348;BME280;5220;43.192;23.284;2022-11-21T16:51:36;96215.56;;;10.98;72.71
10348;BME280;5220;43.192;23.284;2022-11-21T16:57:26;96240.44;;;10.91;72.57
10348;BME280;5220;43.192;23.284;2022-11-21T16:59:57;96238.47;;;10.84;73.21
10348;BME280;5220;43.192;23.284;2022-11-21T17:02:24;96239.88;;;10.88;72.48
10348;BME280;5220;43.192;23.284;2022-11-21T17:04:51;96233.00;;;10.87;72.54
10348;BME280;5220;43.192;23.284;2022-11-21T17:07:25;96239.56;;;10.81;72.56
10348;BME280;5220;43.192;23.284;2022-11-21T17:10:06;96246.84;;;10.87;71.97
10348;BME280;5220;43.192;23.284;2022-11-21T17:12:35;96250.03;;;10.91;71.01
10348;BME280;5220;43.192;23.284;2022-11-21T17:15:29;96256.88;;;10.92;71.65
10348;BME280;5220;43.192;23.284;2022-11-21T17:17:56;96259.88;;;10.87;72.38
10348;BME280;5220;43.192;23.284;2022-11-21T17:20:26;96254.28;;;10.92;72.72
10348;BME280;5220;43.192;23.284;2022-11-21T17:22:54;96268.13;;;10.92;71.56
10348;BME280;5220;43.192;23.284;2022-11-21T17:25:21;96265.94;;;10.97;71.32
10348;BME280;5220;43.192;23.284;2022-11-21T17:27:47;96269.50;;;10.96;71.69
10348;BME280;5220;43.192;23.284;2022-11-21T17:30:40;96276.31;;;10.88;72.16
10348;BME280;5220;43.192;23.284;2022-11-21T17:33:35;96288.94;;;10.92;72.12
10348;BME280;5220;43.192;23.284;2022-11-21T17:36:02;96278.28;;;10.95;71.62
10348;BME280;5220;43.192;23.284;2022-11-21T17:38:43;96273.19;;;10.94;70.72
10348;BME280;5220;43.192;23.284;2022-11-21T17:41:14;96279.75;;;10.88;70.83
10348;BME280;5220;43.192;23.284;2022-11-21T17:43:42;96284.00;;;10.89;71.69
10348;BME280;5220;43.192;23.284;2022-11-21T17:46:11;96287.84;;;10.95;72.58
10348;BME280;5220;43.192;23.284;2022-11-21T17:48:38;96285.38;;;10.93;72.33
10348;BME280;5220;43.192;23.284;2022-11-21T17:51:07;96281.81;;;10.94;71.18
10348;BME280;5220;43.192;23.284;2022-11-21T17:56:57;96279.09;;;10.96;71.81
